sensor_id;sensor_type;location;lat;lon;timestamp;P1;durP1;ratioP1;P2;durP2;ratioP2
36385;SDS011;24125;47.482;8.770;2022-12-18T00:01:51;43.15;;;21.77;;
36385;SDS011;24125;47.482;8.770;2022-12-18T00:04:27;38.78;;;21.02;;
36385;SDS011;24125;47.482;8.770;2022-12-18T00:07:00;46.92;;;21.88;;
36385;SDS011;24125;47.482;8.770;2022-12-18T00:09:33;42.10;;;23.27;;
36385;SDS011;24125;47.482;8.770;2022-12-18T00:12:10;41.92;;;21.85;;
36385;SDS011;24125;47.482;8.770;2022-12-18T00:14:45;38.67;;;19.98;;
36385;SDS011;24125;47.482;8.770;2022-12-18T00:17:18;43.75;;;22.17;;
36385;SDS011;24125;47.482;8.770;2022-12-18T00:19:53;36.15;;;19.45;;
36385;SDS011;24125;47.482;8.770;2022-12-18T00:22:26;40.58;;;20.95;;
36385;SDS011;24125;47.482;8.770;2022-12-18T00:24:59;41.10;;;21.40;;
36385;SDS011;24125;47.482;8.770;2022-12-18T00:27:32;41.20;;;20.92;;
36385;SDS011;24125;47.482;8.770;2022-12-18T00:30:07;37.78;;;19.60;;
36385;SDS011;24125;47.482;8.770;2022-12-18T00:32:40;37.88;;;19.85;;
36385;SDS011;24125;47.482;8.770;2022-12-18T00:35:14;38.80;;;20.52;;
36385;SDS011;24125;47.482;8.770;2022-12-18T00:37:47;38.47;;;20.00;;
36385;SDS011;24125;47.482;8.770;2022-12-18T00:40:20;38.63;;;19.55;;
36385;SDS011;24125;47.482;8.770;2022-12-18T00:42:53;40.80;;;20.80;;
36385;SDS011;24125;47.482;8.770;2022-12-18T00:45:29;40.10;;;19.92;;
36385;SDS011;24125;47.482;8.770;2022-12-18T00:48:03;39.83;;;20.50;;
36385;SDS011;24125;47.482;8.770;2022-12-18T00:50:38;40.45;;;20.10;;
36385;SDS011;24125;47.482;8.770;2022-12-18T00:53:11;39.28;;;20.02;;
36385;SDS011;24125;47.482;8.770;2022-12-18T00:55:45;37.75;;;19.60;;
36385;SDS011;24125;47.482;8.770;2022-12-18T00:58:18;36.95;;;19.40;;
36385;SDS011;24125;47.482;8.770;2022-12-18T01:00:51;39.63;;;19.85;;
36385;SDS011;24125;47.482;8.770;2022-12-18T01:03:24;40.30;;;19.17;;
36385;SDS011;24125;47.482;8.770;2022-12-18T01:05:58;38.15;;;20.25;;
36385;SDS011;24125;47.482;8.770;2022-12-18T01:08:31;41.42;;;21.38;;
36385;SDS011;24125;47.482;8.770;2022-12-18T01:11:07;43.58;;;21.88;;
36385;SDS011;24125;47.482;8.770;2022-12-18T01:13:40;44.55;;;20.77;;
36385;SDS011;24125;47.482;8.770;2022-12-18T01:16:15;38.53;;;19.90;;
36385;SDS011;24125;47.482;8.770;2022-12-18T01:18:50;39.58;;;20.08;;
36385;SDS011;24125;47.482;8.770;2022-12-18T01:21:26;37.72;;;19.35;;
36385;SDS011;24125;47.482;8.770;2022-12-18T01:23:59;42.53;;;19.70;;
36385;SDS011;24125;47.482;8.770;2022-12-18T01:26:32;42.15;;;20.42;;
36385;SDS011;24125;47.482;8.770;2022-12-18T01:29:04;46.10;;;21.25;;
36385;SDS011;24125;47.482;8.770;2022-12-18T01:31:37;42.85;;;20.23;;
36385;SDS011;24125;47.482;8.770;2022-12-18T01:34:10;38.63;;;19.88;;
36385;SDS011;24125;47.482;8.770;2022-12-18T01:36:44;43.67;;;21.45;;
36385;SDS011;24125;47.482;8.770;2022-12-18T01:39:17;41.08;;;19.75;;
36385;SDS011;24125;47.482;8.770;2022-12-18T01:41:51;43.08;;;21.15;;
36385;SDS011;24125;47.482;8.770;2022-12-18T01:44:53;43.15;;;21.13;;
36385;SDS011;24125;47.482;8.770;2022-12-18T01:47:30;43.30;;;21.70;;
36385;SDS011;24125;47.482;8.770;2022-12-18T01:50:09;41.53;;;20.00;;
36385;SDS011;24125;47.482;8.770;2022-12-18T01:52:48;44.25;;;22.35;;
36385;SDS011;24125;47.482;8.770;2022-12-18T01:55:24;44.45;;;21.92;;
36385;SDS011;24125;47.482;8.770;2022-12-18T01:58:00;43.15;;;21.73;;
36385;SDS011;24125;47.482;8.770;2022-12-18T02:00:33;39.45;;;20.42;;
36385;SDS011;24125;47.482;8.770;2022-12-18T02:03:06;46.50;;;21.20;;
36385;SDS011;24125;47.482;8.770;2022-12-18T02:05:42;40.38;;;19.92;;
36385;SDS011;24125;47.482;8.770;2022-12-18T02:08:21;44.65;;;21.13;;
36385;SDS011;24125;47.482;8.770;2022-12-18T02:11:01;45.88;;;21.25;;
36385;SDS011;24125;47.482;8.770;2022-12-18T02:13:40;46.70;;;22.13;;
36385;SDS011;24125;47.482;8.770;2022-12-18T02:16:19;46.25;;;22.35;;
36385;SDS011;24125;47.482;8.770;2022-12-18T02:18:56;48.10;;;22.38;;
36385;SDS011;24125;47.482;8.770;2022-12-18T02:21:34;48.45;;;23.00;;
36385;SDS011;24125;47.482;8.770;2022-12-18T02:24:23;46.92;;;22.65;;
36385;SDS011;24125;47.482;8.770;2022-12-18T02:27:04;46.17;;;22.83;;
36385;SDS011;24125;47.482;8.770;2022-12-18T02:29:40;47.65;;;22.73;;
36385;SDS011;24125;47.482;8.770;2022-12-18T02:32:18;50.00;;;23.52;;
36385;SDS011;24125;47.482;8.770;2022-12-18T02:34:55;42.95;;;21.10;;
36385;SDS011;24125;47.482;8.770;2022-12-18T02:37:29;47.05;;;22.63;;
36385;SDS011;24125;47.482;8.770;2022-12-18T02:40:05;47.47;;;22.60;;
36385;SDS011;24125;47.482;8.770;2022-12-18T02:42:41;46.67;;;23.10;;
36385;SDS011;24125;47.482;8.770;2022-12-18T02:45:14;49.30;;;23.05;;
36385;SDS011;24125;47.482;8.770;2022-12-18T02:47:48;45.38;;;22.52;;
36385;SDS011;24125;47.482;8.770;2022-12-18T02:50:22;50.55;;;22.30;;
36385;SDS011;24125;47.482;8.770;2022-12-18T02:53:05;47.30;;;21.73;;
36385;SDS011;24125;47.482;8.770;2022-12-18T02:55:49;48.63;;;23.92;;
36385;SDS011;24125;47.482;8.770;2022-12-18T02:58:32;52.70;;;23.40;;
36385;SDS011;24125;47.482;8.770;2022-12-18T03:01:13;45.78;;;21.33;;
36385;SDS011;24125;47.482;8.770;2022-12-18T03:03:51;49.17;;;22.60;;
36385;SDS011;24125;47.482;8.770;2022-12-18T03:06:29;48.95;;;22.83;;
36385;SDS011;24125;47.482;8.770;2022-12-18T03:09:07;48.97;;;22.45;;
36385;SDS011;24125;47.482;8.770;2022-12-18T03:11:44;45.05;;;20.98;;
36385;SDS011;24125;47.482;8.770;2022-12-18T03:14:39;43.78;;;19.58;;
36385;SDS011;24125;47.482;8.770;2022-12-18T03:17:15;44.47;;;21.20;;
36385;SDS011;24125;47.482;8.770;2022-12-18T03:19:53;44.65;;;20.95;;
36385;SDS011;24125;47.482;8.770;2022-12-18T03:22:30;43.83;;;21.10;;
36385;SDS011;24125;47.482;8.770;2022-12-18T03:25:06;50.58;;;21.10;;
36385;SDS011;24125;47.482;8.770;2022-12-18T03:27:42;50.97;;;22.75;;
36385;SDS011;24125;47.482;8.770;2022-12-18T03:30:20;46.22;;;22.02;;
36385;SDS011;24125;47.482;8.770;2022-12-18T03:32:54;51.33;;;22.60;;
36385;SDS011;24125;47.482;8.770;2022-12-18T03:35:34;47.38;;;21.45;;
36385;SDS011;24125;47.482;8.770;2022-12-18T03:38:11;44.10;;;21.08;;
36385;SDS011;24125;47.482;8.770;2022-12-18T03:40:49;49.42;;;21.65;;
36385;SDS011;24125;47.482;8.770;2022-12-18T03:43:32;46.13;;;20.90;;
36385;SDS011;24125;47.482;8.770;2022-12-18T03:46:15;46.67;;;21.58;;
36385;SDS011;24125;47.482;8.770;2022-12-18T03:48:59;44.67;;;20.40;;
36385;SDS011;24125;47.482;8.770;2022-12-18T03:51:39;51.83;;;22.52;;
36385;SDS011;24125;47.482;8.770;2022-12-18T03:54:18;48.97;;;22.50;;
36385;SDS011;24125;47.482;8.770;2022-12-18T03:56:57;47.28;;;22.80;;
36385;SDS011;24125;47.482;8.770;2022-12-18T03:59:33;50.08;;;21.80;;
36385;SDS011;24125;47.482;8.770;2022-12-18T04:02:09;46.33;;;21.65;;
36385;SDS011;24125;47.482;8.770;2022-12-18T04:04:42;45.20;;;20.38;;
36385;SDS011;24125;47.482;8.770;2022-12-18T04:07:19;47.88;;;21.63;;
36385;SDS011;24125;47.482;8.770;2022-12-18T04:09:54;48.45;;;21.55;;
36385;SDS011;24125;47.482;8.770;2022-12-18T04:12:30;47.08;;;22.20;;
36385;SDS011;24125;47.482;8.770;2022-12-18T04:15:03;52.50;;;21.63;;
36385;SDS011;24125;47.482;8.770;2022-12-18T04:17:38;49.17;;;21.40;;
36385;SDS011;24125;47.482;8.770;2022-12-18T04:20:16;44.05;;;20.63;;
36385;SDS011;24125;47.482;8.770;2022-12-18T04:22:49;47.17;;;21.05;;
36385;SDS011;24125;47.482;8.770;2022-12-18T04:25:22;49.28;;;21.58;;
36385;SDS011;24125;47.482;8.770;2022-12-18T04:27:55;53.88;;;23.50;;
36385;SDS011;24125;47.482;8.770;2022-12-18T04:30:28;48.80;;;21.95;;
36385;SDS011;24125;47.482;8.770;2022-12-18T04:33:02;49.47;;;23.20;;
36385;SDS011;24125;47.482;8.770;2022-12-18T04:35:35;52.53;;;21.85;;
36385;SDS011;24125;47.482;8.770;2022-12-18T04:38:08;48.50;;;21.30;;
36385;SDS011;24125;47.482;8.770;2022-12-18T04:40:42;47.47;;;21.95;;
36385;SDS011;24125;47.482;8.770;2022-12-18T04:43:15;51.60;;;23.48;;
36385;SDS011;24125;47.482;8.770;2022-12-18T04:45:48;52.40;;;22.30;;
36385;SDS011;24125;47.482;8.770;2022-12-18T04:48:22;47.20;;;21.00;;
36385;SDS011;24125;47.482;8.770;2022-12-18T04:50:55;52.13;;;23.45;;
36385;SDS011;24125;47.482;8.770;2022-12-18T04:53:28;54.25;;;23.27;;
36385;SDS011;24125;47.482;8.770;2022-12-18T04:56:02;54.20;;;22.88;;
36385;SDS011;24125;47.482;8.770;2022-12-18T04:58:36;51.08;;;22.92;;
36385;SDS011;24125;47.482;8.770;2022-12-18T05:01:10;48.72;;;21.52;;
36385;SDS011;24125;47.482;8.770;2022-12-18T05:03:46;49.83;;;22.73;;
36385;SDS011;24125;47.482;8.770;2022-12-18T05:06:19;52.30;;;22.27;;
36385;SDS011;24125;47.482;8.770;2022-12-18T05:08:52;51.88;;;22.08;;
36385;SDS011;24125;47.482;8.770;2022-12-18T05:11:25;51.38;;;22.25;;
36385;SDS011;24125;47.482;8.770;2022-12-18T05:13:58;52.92;;;23.17;;
36385;SDS011;24125;47.482;8.770;2022-12-18T05:16:31;49.10;;;22.15;;
36385;SDS011;24125;47.482;8.770;2022-12-18T05:19:05;51.85;;;23.75;;
36385;SDS011;24125;47.482;8.770;2022-12-18T05:21:38;52.47;;;22.35;;
36385;SDS011;24125;47.482;8.770;2022-12-18T05:24:11;52.30;;;22.45;;
36385;SDS011;24125;47.482;8.770;2022-12-18T05:26:44;51.95;;;22.92;;
36385;SDS011;24125;47.482;8.770;2022-12-18T05:29:17;50.35;;;21.95;;
36385;SDS011;24125;47.482;8.770;2022-12-18T05:31:50;48.60;;;21.95;;
36385;SDS011;24125;47.482;8.770;2022-12-18T05:34:24;48.70;;;21.13;;
36385;SDS011;24125;47.482;8.770;2022-12-18T05:36:57;48.65;;;21.73;;
36385;SDS011;24125;47.482;8.770;2022-12-18T05:39:30;51.10;;;23.40;;
36385;SDS011;24125;47.482;8.770;2022-12-18T05:42:02;49.20;;;21.30;;
36385;SDS011;24125;47.482;8.770;2022-12-18T05:44:35;50.53;;;22.30;;
36385;SDS011;24125;47.482;8.770;2022-12-18T05:47:08;52.00;;;23.67;;
36385;SDS011;24125;47.482;8.770;2022-12-18T05:49:43;50.97;;;22.70;;
36385;SDS011;24125;47.482;8.770;2022-12-18T05:52:15;55.55;;;23.58;;
36385;SDS011;24125;47.482;8.770;2022-12-18T05:54:48;54.42;;;24.23;;
36385;SDS011;24125;47.482;8.770;2022-12-18T05:57:21;47.60;;;22.08;;
36385;SDS011;24125;47.482;8.770;2022-12-18T05:59:54;50.25;;;22.58;;
36385;SDS011;24125;47.482;8.770;2022-12-18T06:02:27;53.17;;;23.08;;
36385;SDS011;24125;47.482;8.770;2022-12-18T06:05:01;54.13;;;24.02;;
36385;SDS011;24125;47.482;8.770;2022-12-18T06:07:34;43.65;;;19.52;;
36385;SDS011;24125;47.482;8.770;2022-12-18T06:10:07;47.22;;;21.55;;
36385;SDS011;24125;47.482;8.770;2022-12-18T06:12:40;52.63;;;22.58;;
36385;SDS011;24125;47.482;8.770;2022-12-18T06:15:13;48.50;;;21.70;;
36385;SDS011;24125;47.482;8.770;2022-12-18T06:17:47;51.33;;;21.65;;
36385;SDS011;24125;47.482;8.770;2022-12-18T06:20:21;50.33;;;21.63;;
36385;SDS011;24125;47.482;8.770;2022-12-18T06:23:00;45.38;;;20.88;;
36385;SDS011;24125;47.482;8.770;2022-12-18T06:25:33;45.70;;;20.15;;
36385;SDS011;24125;47.482;8.770;2022-12-18T06:28:09;43.08;;;19.42;;
36385;SDS011;24125;47.482;8.770;2022-12-18T06:30:42;48.20;;;19.80;;
36385;SDS011;24125;47.482;8.770;2022-12-18T06:33:15;40.75;;;18.98;;
36385;SDS011;24125;47.482;8.770;2022-12-18T06:35:50;43.40;;;19.80;;
36385;SDS011;24125;47.482;8.770;2022-12-18T06:41:05;37.65;;;16.65;;
36385;SDS011;24125;47.482;8.770;2022-12-18T06:43:39;41.67;;;19.15;;
36385;SDS011;24125;47.482;8.770;2022-12-18T06:46:13;40.85;;;18.63;;
36385;SDS011;24125;47.482;8.770;2022-12-18T06:48:47;44.47;;;19.38;;
36385;SDS011;24125;47.482;8.770;2022-12-18T06:51:23;44.22;;;19.00;;
36385;SDS011;24125;47.482;8.770;2022-12-18T06:53:56;44.60;;;19.30;;
36385;SDS011;24125;47.482;8.770;2022-12-18T06:56:29;42.53;;;19.02;;
36385;SDS011;24125;47.482;8.770;2022-12-18T06:59:02;48.08;;;19.85;;
36385;SDS011;24125;47.482;8.770;2022-12-18T07:01:35;46.58;;;20.05;;
36385;SDS011;24125;47.482;8.770;2022-12-18T07:04:08;47.00;;;20.90;;
36385;SDS011;24125;47.482;8.770;2022-12-18T07:06:43;45.00;;;20.67;;
36385;SDS011;24125;47.482;8.770;2022-12-18T07:09:15;44.55;;;20.30;;
36385;SDS011;24125;47.482;8.770;2022-12-18T07:11:48;47.30;;;20.48;;
36385;SDS011;24125;47.482;8.770;2022-12-18T07:14:21;46.10;;;18.90;;
36385;SDS011;24125;47.482;8.770;2022-12-18T07:16:54;45.60;;;20.23;;
36385;SDS011;24125;47.482;8.770;2022-12-18T07:19:27;42.47;;;19.45;;
36385;SDS011;24125;47.482;8.770;2022-12-18T07:22:02;48.88;;;20.55;;
36385;SDS011;24125;47.482;8.770;2022-12-18T07:24:36;46.85;;;20.88;;
36385;SDS011;24125;47.482;8.770;2022-12-18T07:27:09;51.75;;;21.92;;
36385;SDS011;24125;47.482;8.770;2022-12-18T07:29:42;46.22;;;20.83;;
36385;SDS011;24125;47.482;8.770;2022-12-18T07:32:15;46.22;;;19.73;;
36385;SDS011;24125;47.482;8.770;2022-12-18T07:34:48;42.67;;;19.25;;
36385;SDS011;24125;47.482;8.770;2022-12-18T07:37:22;48.72;;;21.35;;
36385;SDS011;24125;47.482;8.770;2022-12-18T07:39:55;47.92;;;22.13;;
36385;SDS011;24125;47.482;8.770;2022-12-18T07:42:28;44.58;;;21.00;;
36385;SDS011;24125;47.482;8.770;2022-12-18T07:45:04;47.35;;;21.08;;
36385;SDS011;24125;47.482;8.770;2022-12-18T07:47:38;44.20;;;21.02;;
36385;SDS011;24125;47.482;8.770;2022-12-18T07:50:12;47.47;;;21.85;;
36385;SDS011;24125;47.482;8.770;2022-12-18T07:52:47;49.75;;;22.50;;
36385;SDS011;24125;47.482;8.770;2022-12-18T07:55:19;49.13;;;23.05;;
36385;SDS011;24125;47.482;8.770;2022-12-18T07:57:52;50.72;;;23.20;;
36385;SDS011;24125;47.482;8.770;2022-12-18T08:00:31;50.95;;;22.58;;
36385;SDS011;24125;47.482;8.770;2022-12-18T08:03:04;53.45;;;23.58;;
36385;SDS011;24125;47.482;8.770;2022-12-18T08:05:37;47.47;;;22.30;;
36385;SDS011;24125;47.482;8.770;2022-12-18T08:08:11;50.50;;;22.70;;
36385;SDS011;24125;47.482;8.770;2022-12-18T08:10:44;52.83;;;23.65;;
36385;SDS011;24125;47.482;8.770;2022-12-18T08:13:18;52.47;;;23.90;;
36385;SDS011;24125;47.482;8.770;2022-12-18T08:15:57;50.70;;;23.70;;
36385;SDS011;24125;47.482;8.770;2022-12-18T08:18:32;48.78;;;21.85;;
36385;SDS011;24125;47.482;8.770;2022-12-18T08:21:09;50.50;;;22.15;;
36385;SDS011;24125;47.482;8.770;2022-12-18T08:23:44;51.70;;;23.02;;
36385;SDS011;24125;47.482;8.770;2022-12-18T08:26:18;49.50;;;22.33;;
36385;SDS011;24125;47.482;8.770;2022-12-18T08:28:52;49.85;;;22.90;;
36385;SDS011;24125;47.482;8.770;2022-12-18T08:31:27;50.17;;;23.65;;
36385;SDS011;24125;47.482;8.770;2022-12-18T08:34:01;48.50;;;22.42;;
36385;SDS011;24125;47.482;8.770;2022-12-18T08:36:34;56.08;;;24.17;;
36385;SDS011;24125;47.482;8.770;2022-12-18T08:39:09;47.88;;;21.98;;
36385;SDS011;24125;47.482;8.770;2022-12-18T08:41:42;47.60;;;21.70;;
36385;SDS011;24125;47.482;8.770;2022-12-18T08:44:40;48.00;;;22.80;;
36385;SDS011;24125;47.482;8.770;2022-12-18T08:47:12;48.45;;;22.92;;
36385;SDS011;24125;47.482;8.770;2022-12-18T08:49:45;47.33;;;21.75;;
36385;SDS011;24125;47.482;8.770;2022-12-18T08:52:18;46.53;;;21.52;;
36385;SDS011;24125;47.482;8.770;2022-12-18T08:54:52;48.15;;;22.27;;
36385;SDS011;24125;47.482;8.770;2022-12-18T08:57:25;49.90;;;22.55;;
36385;SDS011;24125;47.482;8.770;2022-12-18T08:59:57;52.55;;;23.50;;
36385;SDS011;24125;47.482;8.770;2022-12-18T09:02:30;45.88;;;21.83;;
36385;SDS011;24125;47.482;8.770;2022-12-18T09:05:04;49.13;;;22.70;;
36385;SDS011;24125;47.482;8.770;2022-12-18T09:07:37;42.95;;;20.35;;
36385;SDS011;24125;47.482;8.770;2022-12-18T09:10:11;40.60;;;20.17;;
36385;SDS011;24125;47.482;8.770;2022-12-18T09:12:44;49.17;;;22.48;;
36385;SDS011;24125;47.482;8.770;2022-12-18T09:15:18;50.92;;;23.30;;
36385;SDS011;24125;47.482;8.770;2022-12-18T09:17:51;45.35;;;21.02;;
36385;SDS011;24125;47.482;8.770;2022-12-18T09:20:25;48.40;;;22.60;;
36385;SDS011;24125;47.482;8.770;2022-12-18T09:22:59;48.38;;;22.98;;
36385;SDS011;24125;47.482;8.770;2022-12-18T09:25:33;50.92;;;22.63;;
36385;SDS011;24125;47.482;8.770;2022-12-18T09:28:09;46.38;;;22.70;;
36385;SDS011;24125;47.482;8.770;2022-12-18T09:30:44;46.58;;;20.73;;
36385;SDS011;24125;47.482;8.770;2022-12-18T09:33:18;45.70;;;22.02;;
36385;SDS011;24125;47.482;8.770;2022-12-18T09:35:51;43.58;;;21.83;;
36385;SDS011;24125;47.482;8.770;2022-12-18T09:38:24;50.70;;;23.13;;
36385;SDS011;24125;47.482;8.770;2022-12-18T09:40:59;47.53;;;22.90;;
36385;SDS011;24125;47.482;8.770;2022-12-18T09:43:37;44.15;;;21.83;;
36385;SDS011;24125;47.482;8.770;2022-12-18T09:46:17;47.10;;;22.05;;
36385;SDS011;24125;47.482;8.770;2022-12-18T09:48:57;44.50;;;21.27;;
36385;SDS011;24125;47.482;8.770;2022-12-18T09:51:35;44.78;;;22.52;;
36385;SDS011;24125;47.482;8.770;2022-12-18T09:54:11;43.20;;;20.58;;
36385;SDS011;24125;47.482;8.770;2022-12-18T09:56:48;43.40;;;20.75;;
36385;SDS011;24125;47.482;8.770;2022-12-18T09:59:22;43.63;;;20.95;;
36385;SDS011;24125;47.482;8.770;2022-12-18T10:01:58;43.13;;;21.20;;
36385;SDS011;24125;47.482;8.770;2022-12-18T10:04:31;39.67;;;19.55;;
36385;SDS011;24125;47.482;8.770;2022-12-18T10:07:07;44.70;;;21.33;;
36385;SDS011;24125;47.482;8.770;2022-12-18T10:12:25;33.85;;;16.98;;
36385;SDS011;24125;47.482;8.770;2022-12-18T10:15:06;39.63;;;19.55;;
36385;SDS011;24125;47.482;8.770;2022-12-18T10:17:45;37.80;;;18.83;;
36385;SDS011;24125;47.482;8.770;2022-12-18T10:20:24;45.75;;;21.48;;
36385;SDS011;24125;47.482;8.770;2022-12-18T10:23:08;45.50;;;21.88;;
36385;SDS011;24125;47.482;8.770;2022-12-18T10:25:53;40.13;;;19.42;;
36385;SDS011;24125;47.482;8.770;2022-12-18T10:28:34;40.40;;;19.35;;
36385;SDS011;24125;47.482;8.770;2022-12-18T10:31:12;43.55;;;20.58;;
36385;SDS011;24125;47.482;8.770;2022-12-18T10:33:48;38.80;;;20.35;;
36385;SDS011;24125;47.482;8.770;2022-12-18T10:36:22;39.10;;;19.80;;
36385;SDS011;24125;47.482;8.770;2022-12-18T10:38:57;39.65;;;19.13;;
36385;SDS011;24125;47.482;8.770;2022-12-18T10:41:47;35.78;;;18.05;;
36385;SDS011;24125;47.482;8.770;2022-12-18T10:44:22;38.00;;;18.35;;
36385;SDS011;24125;47.482;8.770;2022-12-18T10:47:02;43.90;;;20.92;;
36385;SDS011;24125;47.482;8.770;2022-12-18T10:49:49;39.67;;;19.75;;
36385;SDS011;24125;47.482;8.770;2022-12-18T10:52:26;38.33;;;18.20;;
36385;SDS011;24125;47.482;8.770;2022-12-18T10:55:01;40.00;;;20.80;;
36385;SDS011;24125;47.482;8.770;2022-12-18T10:57:37;41.22;;;19.45;;
36385;SDS011;24125;47.482;8.770;2022-12-18T11:00:26;38.33;;;20.02;;
36385;SDS011;24125;47.482;8.770;2022-12-18T11:03:00;38.40;;;19.10;;
36385;SDS011;24125;47.482;8.770;2022-12-18T11:05:35;40.85;;;19.90;;
36385;SDS011;24125;47.482;8.770;2022-12-18T11:08:11;41.70;;;21.58;;
36385;SDS011;24125;47.482;8.770;2022-12-18T11:10:54;36.70;;;18.83;;
36385;SDS011;24125;47.482;8.770;2022-12-18T11:13:27;41.33;;;19.95;;
36385;SDS011;24125;47.482;8.770;2022-12-18T11:16:03;40.22;;;19.77;;
36385;SDS011;24125;47.482;8.770;2022-12-18T11:18:37;45.53;;;21.83;;
36385;SDS011;24125;47.482;8.770;2022-12-18T11:21:11;45.67;;;22.45;;
36385;SDS011;24125;47.482;8.770;2022-12-18T11:23:47;41.97;;;21.38;;
36385;SDS011;24125;47.482;8.770;2022-12-18T11:26:23;47.22;;;23.33;;
36385;SDS011;24125;47.482;8.770;2022-12-18T11:29:08;42.10;;;21.30;;
36385;SDS011;24125;47.482;8.770;2022-12-18T11:31:44;44.38;;;22.52;;
36385;SDS011;24125;47.482;8.770;2022-12-18T11:34:19;44.10;;;22.30;;
36385;SDS011;24125;47.482;8.770;2022-12-18T11:37:00;44.80;;;21.48;;
36385;SDS011;24125;47.482;8.770;2022-12-18T11:39:36;44.03;;;20.98;;
36385;SDS011;24125;47.482;8.770;2022-12-18T11:42:12;37.75;;;19.83;;
36385;SDS011;24125;47.482;8.770;2022-12-18T11:44:52;40.70;;;21.63;;
36385;SDS011;24125;47.482;8.770;2022-12-18T11:47:34;41.85;;;21.17;;
36385;SDS011;24125;47.482;8.770;2022-12-18T11:50:14;39.75;;;20.17;;
36385;SDS011;24125;47.482;8.770;2022-12-18T11:52:50;36.50;;;19.67;;
36385;SDS011;24125;47.482;8.770;2022-12-18T11:55:35;41.38;;;21.42;;
36385;SDS011;24125;47.482;8.770;2022-12-18T11:58:18;44.50;;;22.45;;
36385;SDS011;24125;47.482;8.770;2022-12-18T12:01:22;41.10;;;20.77;;
36385;SDS011;24125;47.482;8.770;2022-12-18T12:04:22;41.47;;;20.00;;
36385;SDS011;24125;47.482;8.770;2022-12-18T12:07:09;42.78;;;20.10;;
36385;SDS011;24125;47.482;8.770;2022-12-18T12:09:56;37.70;;;20.05;;
36385;SDS011;24125;47.482;8.770;2022-12-18T12:12:38;39.53;;;20.45;;
36385;SDS011;24125;47.482;8.770;2022-12-18T12:15:28;39.30;;;20.80;;
36385;SDS011;24125;47.482;8.770;2022-12-18T12:18:13;38.05;;;20.67;;
36385;SDS011;24125;47.482;8.770;2022-12-18T12:21:01;39.17;;;20.58;;
36385;SDS011;24125;47.482;8.770;2022-12-18T12:23:40;36.95;;;20.15;;
36385;SDS011;24125;47.482;8.770;2022-12-18T12:26:19;33.83;;;19.48;;
36385;SDS011;24125;47.482;8.770;2022-12-18T12:29:01;39.05;;;19.85;;
36385;SDS011;24125;47.482;8.770;2022-12-18T12:31:56;41.45;;;20.75;;
36385;SDS011;24125;47.482;8.770;2022-12-18T12:34:38;39.05;;;19.88;;
36385;SDS011;24125;47.482;8.770;2022-12-18T12:37:21;37.55;;;19.75;;
36385;SDS011;24125;47.482;8.770;2022-12-18T12:40:02;39.15;;;20.15;;
36385;SDS011;24125;47.482;8.770;2022-12-18T12:42:56;35.28;;;18.58;;
36385;SDS011;24125;47.482;8.770;2022-12-18T12:45:44;34.45;;;18.35;;
36385;SDS011;24125;47.482;8.770;2022-12-18T12:48:27;36.75;;;19.05;;
36385;SDS011;24125;47.482;8.770;2022-12-18T12:51:08;38.45;;;20.17;;
36385;SDS011;24125;47.482;8.770;2022-12-18T12:53:50;35.80;;;19.42;;
36385;SDS011;24125;47.482;8.770;2022-12-18T12:56:26;37.15;;;19.98;;
36385;SDS011;24125;47.482;8.770;2022-12-18T12:59:13;34.92;;;18.83;;
36385;SDS011;24125;47.482;8.770;2022-12-18T13:01:52;39.17;;;21.52;;
36385;SDS011;24125;47.482;8.770;2022-12-18T13:04:33;42.40;;;21.67;;
36385;SDS011;24125;47.482;8.770;2022-12-18T13:07:13;38.22;;;19.85;;
36385;SDS011;24125;47.482;8.770;2022-12-18T13:12:55;42.90;;;21.45;;
36385;SDS011;24125;47.482;8.770;2022-12-18T13:15:31;42.65;;;21.15;;
36385;SDS011;24125;47.482;8.770;2022-12-18T13:18:13;40.80;;;20.65;;
36385;SDS011;24125;47.482;8.770;2022-12-18T13:20:50;37.42;;;20.33;;
36385;SDS011;24125;47.482;8.770;2022-12-18T13:23:39;39.97;;;20.50;;
36385;SDS011;24125;47.482;8.770;2022-12-18T13:26:31;38.83;;;21.27;;
36385;SDS011;24125;47.482;8.770;2022-12-18T13:29:06;41.28;;;20.73;;
36385;SDS011;24125;47.482;8.770;2022-12-18T13:38:20;40.58;;;19.65;;
36385;SDS011;24125;47.482;8.770;2022-12-18T13:40:55;41.35;;;21.27;;
36385;SDS011;24125;47.482;8.770;2022-12-18T13:43:32;44.40;;;21.98;;
36385;SDS011;24125;47.482;8.770;2022-12-18T13:46:21;41.10;;;21.52;;
36385;SDS011;24125;47.482;8.770;2022-12-18T13:49:00;40.20;;;21.13;;
36385;SDS011;24125;47.482;8.770;2022-12-18T13:51:39;39.60;;;19.92;;
36385;SDS011;24125;47.482;8.770;2022-12-18T13:54:18;42.15;;;21.40;;
36385;SDS011;24125;47.482;8.770;2022-12-18T13:56:54;43.83;;;22.10;;
36385;SDS011;24125;47.482;8.770;2022-12-18T13:59:34;41.75;;;22.20;;
36385;SDS011;24125;47.482;8.770;2022-12-18T14:02:12;42.70;;;21.13;;
36385;SDS011;24125;47.482;8.770;2022-12-18T14:04:48;38.97;;;21.35;;
36385;SDS011;24125;47.482;8.770;2022-12-18T14:07:22;36.65;;;19.60;;
36385;SDS011;24125;47.482;8.770;2022-12-18T14:09:58;36.75;;;19.60;;
36385;SDS011;24125;47.482;8.770;2022-12-18T14:12:52;33.80;;;17.92;;
36385;SDS011;24125;47.482;8.770;2022-12-18T14:15:35;34.57;;;18.30;;
36385;SDS011;24125;47.482;8.770;2022-12-18T14:18:15;36.60;;;18.75;;
36385;SDS011;24125;47.482;8.770;2022-12-18T14:20:54;39.13;;;19.25;;
36385;SDS011;24125;47.482;8.770;2022-12-18T14:23:31;39.55;;;19.05;;
36385;SDS011;24125;47.482;8.770;2022-12-18T14:26:19;38.95;;;19.20;;
36385;SDS011;24125;47.482;8.770;2022-12-18T14:28:55;37.00;;;19.40;;
36385;SDS011;24125;47.482;8.770;2022-12-18T14:31:30;35.17;;;19.08;;
36385;SDS011;24125;47.482;8.770;2022-12-18T14:34:03;38.63;;;19.17;;
36385;SDS011;24125;47.482;8.770;2022-12-18T14:36:37;35.65;;;18.80;;
36385;SDS011;24125;47.482;8.770;2022-12-18T14:39:13;38.17;;;19.23;;
36385;SDS011;24125;47.482;8.770;2022-12-18T14:41:49;38.50;;;19.25;;
36385;SDS011;24125;47.482;8.770;2022-12-18T14:44:22;40.35;;;19.67;;
36385;SDS011;24125;47.482;8.770;2022-12-18T14:47:12;37.28;;;19.38;;
36385;SDS011;24125;47.482;8.770;2022-12-18T14:49:46;35.78;;;18.33;;
36385;SDS011;24125;47.482;8.770;2022-12-18T14:52:21;33.00;;;17.20;;
36385;SDS011;24125;47.482;8.770;2022-12-18T14:54:59;33.90;;;17.00;;
36385;SDS011;24125;47.482;8.770;2022-12-18T14:57:34;32.25;;;17.05;;
36385;SDS011;24125;47.482;8.770;2022-12-18T15:00:14;35.40;;;17.50;;
36385;SDS011;24125;47.482;8.770;2022-12-18T15:02:52;33.13;;;16.65;;
36385;SDS011;24125;47.482;8.770;2022-12-18T15:05:27;35.78;;;17.88;;
36385;SDS011;24125;47.482;8.770;2022-12-18T15:08:01;35.58;;;17.25;;
36385;SDS011;24125;47.482;8.770;2022-12-18T15:10:35;35.28;;;17.45;;
36385;SDS011;24125;47.482;8.770;2022-12-18T15:13:20;38.00;;;18.77;;
36385;SDS011;24125;47.482;8.770;2022-12-18T15:15:55;37.42;;;17.42;;
36385;SDS011;24125;47.482;8.770;2022-12-18T15:18:33;36.75;;;17.73;;
36385;SDS011;24125;47.482;8.770;2022-12-18T15:21:14;34.63;;;17.73;;
36385;SDS011;24125;47.482;8.770;2022-12-18T15:23:50;36.58;;;18.17;;
36385;SDS011;24125;47.482;8.770;2022-12-18T15:26:25;38.67;;;17.40;;
36385;SDS011;24125;47.482;8.770;2022-12-18T15:28:58;33.60;;;17.52;;
36385;SDS011;24125;47.482;8.770;2022-12-18T15:31:33;34.33;;;17.08;;